sensor_id;sensor_type;location;lat;lon;timestamp;temperature;humidity
27368;DHT22;14839;48.106;11.618;2023-04-03T04:02:16;2.30;94.60
27368;DHT22;14839;48.106;11.618;2023-04-03T04:04:42;2.40;94.60
27368;DHT22;14839;48.106;11.618;2023-04-03T04:07:07;2.40;94.60
27368;DHT22;14839;48.106;11.618;2023-04-03T04:09:33;2.40;94.60
27368;DHT22;14839;48.106;11.618;2023-04-03T04:11:59;2.40;94.60
27368;DHT22;14839;48.106;11.618;2023-04-03T04:14:24;2.40;94.60
27368;DHT22;14839;48.106;11.618;2023-04-03T04:16:50;2.40;94.60
27368;DHT22;14839;48.106;11.618;2023-04-03T04:19:16;2.40;94.60
27368;DHT22;14839;48.106;11.618;2023-04-03T04:21:41;2.40;94.60
27368;DHT22;14839;48.106;11.618;2023-04-03T04:24:07;2.30;94.60
27368;DHT22;14839;48.106;11.618;2023-04-03T04:26:33;2.30;94.60
27368;DHT22;14839;48.106;11.618;2023-04-03T04:28:59;2.30;94.60
27368;DHT22;14839;48.106;11.618;2023-04-03T04:31:25;2.40;94.60
27368;DHT22;14839;48.106;11.618;2023-04-03T04:33:51;2.40;94.60
27368;DHT22;14839;48.106;11.618;2023-04-03T04:36:17;2.40;94.60
27368;DHT22;14839;48.106;11.618;2023-04-03T04:38:42;2.40;94.60
27368;DHT22;14839;48.106;11.618;2023-04-03T04:41:08;2.40;94.60
27368;DHT22;14839;48.106;11.618;2023-04-03T04:43:33;2.40;94.60
27368;DHT22;14839;48.106;11.618;2023-04-03T04:46:04;2.30;94.60
27368;DHT22;14839;48.106;11.618;2023-04-03T04:48:30;2.30;94.60
27368;DHT22;14839;48.106;11.618;2023-04-03T04:50:56;2.30;94.60
27368;DHT22;14839;48.106;11.618;2023-04-03T04:53:22;2.30;94.60
27368;DHT22;14839;48.106;11.618;2023-04-03T04:55:48;2.30;94.60
27368;DHT22;14839;48.106;11.618;2023-04-03T04:58:13;2.40;94.60
27368;DHT22;14839;48.106;11.618;2023-04-03T05:00:39;2.40;94.60
27368;DHT22;14839;48.106;11.618;2023-04-03T05:03:05;2.40;94.60
27368;DHT22;14839;48.106;11.618;2023-04-03T05:05:31;2.40;94.60
27368;DHT22;14839;48.106;11.618;2023-04-03T05:07:56;2.30;94.60
27368;DHT22;14839;48.106;11.618;2023-04-03T05:10:22;2.30;94.60
27368;DHT22;14839;48.106;11.618;2023-04-03T05:12:48;2.30;94.60
27368;DHT22;14839;48.106;11.618;2023-04-03T05:15:13;2.40;94.60
27368;DHT22;14839;48.106;11.618;2023-04-03T05:17:39;2.40;94.60
27368;DHT22;14839;48.106;11.618;2023-04-03T05:20:05;2.40;94.60
27368;DHT22;14839;48.106;11.618;2023-04-03T05:22:31;2.40;94.60
27368;DHT22;14839;48.106;11.618;2023-04-03T05:24:56;2.30;94.60
27368;DHT22;14839;48.106;11.618;2023-04-03T05:27:22;2.30;94.60
27368;DHT22;14839;48.106;11.618;2023-04-03T05:29:49;2.30;94.60
27368;DHT22;14839;48.106;11.618;2023-04-03T05:32:16;2.30;94.60
27368;DHT22;14839;48.106;11.618;2023-04-03T05:34:42;2.40;94.60
27368;DHT22;14839;48.106;11.618;2023-04-03T05:37:07;2.30;94.60
27368;DHT22;14839;48.106;11.618;2023-04-03T05:39:33;2.30;94.60
27368;DHT22;14839;48.106;11.618;2023-04-03T05:41:59;2.40;94.60
27368;DHT22;14839;48.106;11.618;2023-04-03T05:44:25;2.40;94.60
27368;DHT22;14839;48.106;11.618;2023-04-03T05:46:50;2.40;94.60
27368;DHT22;14839;48.106;11.618;2023-04-03T05:49:16;2.50;94.60
27368;DHT22;14839;48.106;11.618;2023-04-03T05:51:41;2.40;94.60
27368;DHT22;14839;48.106;11.618;2023-04-03T05:54:13;2.50;94.60
27368;DHT22;14839;48.106;11.618;2023-04-03T05:56:41;2.50;94.60
27368;DHT22;14839;48.106;11.618;2023-04-03T05:59:07;2.60;94.60
27368;DHT22;14839;48.106;11.618;2023-04-03T06:01:33;2.70;94.60
27368;DHT22;14839;48.106;11.618;2023-04-03T06:03:59;2.70;94.60
27368;DHT22;14839;48.106;11.618;2023-04-03T06:06:25;2.70;94.60
27368;DHT22;14839;48.106;11.618;2023-04-03T06:08:51;2.80;94.60
27368;DHT22;14839;48.106;11.618;2023-04-03T06:11:16;2.80;94.60
27368;DHT22;14839;48.106;11.618;2023-04-03T06:13:42;2.90;94.60
27368;DHT22;14839;48.106;11.618;2023-04-03T06:16:12;2.90;94.60
27368;DHT22;14839;48.106;11.618;2023-04-03T06:18:39;2.90;94.60
27368;DHT22;14839;48.106;11.618;2023-04-03T06:21:05;2.90;94.60
27368;DHT22;14839;48.106;11.618;2023-04-03T06:23:33;2.90;94.60
27368;DHT22;14839;48.106;11.618;2023-04-03T06:25:58;3.00;94.60
27368;DHT22;14839;48.106;11.618;2023-04-03T06:28:25;3.00;94.60
27368;DHT22;14839;48.106;11.618;2023-04-03T06:30:50;3.10;94.60
27368;DHT22;14839;48.106;11.618;2023-04-03T06:33:16;3.20;94.60
27368;DHT22;14839;48.106;11.618;2023-04-03T06:35:41;3.30;94.60
27368;DHT22;14839;48.106;11.618;2023-04-03T06:38:07;3.40;94.60
27368;DHT22;14839;48.106;11.618;2023-04-03T06:40:35;3.50;94.60
27368;DHT22;14839;48.106;11.618;2023-04-03T06:43:01;3.50;94.60
27368;DHT22;14839;48.106;11.618;2023-04-03T06:45:27;3.50;94.60
27368;DHT22;14839;48.106;11.618;2023-04-03T06:47:53;3.50;94.60
27368;DHT22;14839;48.106;11.618;2023-04-03T06:50:19;3.50;94.60
27368;DHT22;14839;48.106;11.618;2023-04-03T06:52:45;3.50;94.60
27368;DHT22;14839;48.106;11.618;2023-04-03T06:55:11;3.50;94.60
27368;DHT22;14839;48.106;11.618;2023-04-03T06:57:37;3.50;94.60
27368;DHT22;14839;48.106;11.618;2023-04-03T07:00:05;3.60;94.60
27368;DHT22;14839;48.106;11.618;2023-04-03T07:02:31;3.60;94.60
27368;DHT22;14839;48.106;11.618;2023-04-03T07:04:57;3.70;94.60
27368;DHT22;14839;48.106;11.618;2023-04-03T07:07:22;3.80;94.60
27368;DHT22;14839;48.106;11.618;2023-04-03T07:09:48;3.80;94.60
27368;DHT22;14839;48.106;11.618;2023-04-03T07:12:14;3.90;94.60
27368;DHT22;14839;48.106;11.618;2023-04-03T07:14:41;4.10;94.60
27368;DHT22;14839;48.106;11.618;2023-04-03T07:17:06;4.10;94.60
27368;DHT22;14839;48.106;11.618;2023-04-03T07:19:32;4.10;94.60
27368;DHT22;14839;48.106;11.618;2023-04-03T07:21:58;4.20;94.60
27368;DHT22;14839;48.106;11.618;2023-04-03T07:24:23;4.30;94.60
27368;DHT22;14839;48.106;11.618;2023-04-03T07:26:50;4.40;94.60
27368;DHT22;14839;48.106;11.618;2023-04-03T07:29:16;4.40;94.60
27368;DHT22;14839;48.106;11.618;2023-04-03T07:31:42;4.70;94.60
27368;DHT22;14839;48.106;11.618;2023-04-03T07:34:08;4.80;94.60
27368;DHT22;14839;48.106;11.618;2023-04-03T07:36:34;4.80;94.60
27368;DHT22;14839;48.106;11.618;2023-04-03T07:38:59;4.70;94.60
27368;DHT22;14839;48.106;11.618;2023-04-03T07:41:25;4.50;94.60
27368;DHT22;14839;48.106;11.618;2023-04-03T07:43:51;4.60;94.60
27368;DHT22;14839;48.106;11.618;2023-04-03T07:46:17;4.60;94.30
27368;DHT22;14839;48.106;11.618;2023-04-03T07:48:43;4.30;94.60
27368;DHT22;14839;48.106;11.618;2023-04-03T07:51:09;4.40;94.60
27368;DHT22;14839;48.106;11.618;2023-04-03T07:53:35;4.40;94.60
27368;DHT22;14839;48.106;11.618;2023-04-03T07:56:01;4.40;94.60
27368;DHT22;14839;48.106;11.618;2023-04-03T07:58:28;4.40;94.60
27368;DHT22;14839;48.106;11.618;2023-04-03T08:00:54;4.40;94.60
27368;DHT22;14839;48.106;11.618;2023-04-03T08:03:19;4.30;94.60
27368;DHT22;14839;48.106;11.618;2023-04-03T08:05:46;4.20;94.60
27368;DHT22;14839;48.106;11.618;2023-04-03T08:08:15;4.10;94.60
27368;DHT22;14839;48.106;11.618;2023-04-03T08:10:41;4.20;94.60
27368;DHT22;14839;48.106;11.618;2023-04-03T08:13:07;4.20;94.60
27368;DHT22;14839;48.106;11.618;2023-04-03T08:15:34;4.30;94.60
27368;DHT22;14839;48.106;11.618;2023-04-03T08:18:00;4.20;94.60
27368;DHT22;14839;48.106;11.618;2023-04-03T08:20:26;4.20;94.60
27368;DHT22;14839;48.106;11.618;2023-04-03T08:22:52;4.10;94.60
27368;DHT22;14839;48.106;11.618;2023-04-03T08:25:17;4.00;94.60
27368;DHT22;14839;48.106;11.618;2023-04-03T08:27:44;4.00;94.60
27368;DHT22;14839;48.106;11.618;2023-04-03T08:30:10;3.90;94.60
27368;DHT22;14839;48.106;11.618;2023-04-03T08:32:36;4.00;94.60
27368;DHT22;14839;48.106;11.618;2023-04-03T08:35:04;4.00;94.60
27368;DHT22;14839;48.106;11.618;2023-04-03T08:37:30;4.00;94.60
27368;DHT22;14839;48.106;11.618;2023-04-03T08:39:56;4.00;94.60
27368;DHT22;14839;48.106;11.618;2023-04-03T08:45:26;4.10;94.60
27368;DHT22;14839;48.106;11.618;2023-04-03T08:48:03;4.10;94.60
27368;DHT22;14839;48.106;11.618;2023-04-03T08:50:45;4.30;94.60
27368;DHT22;14839;48.106;11.618;2023-04-03T08:53:15;4.40;94.60
27368;DHT22;14839;48.106;11.618;2023-04-03T08:55:45;4.60;94.60
27368;DHT22;14839;48.106;11.618;2023-04-03T08:58:32;4.70;94.60
27368;DHT22;14839;48.106;11.618;2023-04-03T09:01:05;4.70;93.30
27368;DHT22;14839;48.106;11.618;2023-04-03T09:03:32;4.90;93.20
27368;DHT22;14839;48.106;11.618;2023-04-03T09:08:35;5.10;92.60
27368;DHT22;14839;48.106;11.618;2023-04-03T09:11:16;5.20;94.10
27368;DHT22;14839;48.106;11.618;2023-04-03T09:16:32;5.20;92.00
27368;DHT22;14839;48.106;11.618;2023-04-03T09:21:42;5.40;90.80
27368;DHT22;14839;48.106;11.618;2023-04-03T09:24:11;5.40;90.80
27368;DHT22;14839;48.106;11.618;2023-04-03T09:26:53;5.60;91.70
27368;DHT22;14839;48.106;11.618;2023-04-03T09:29:22;5.90;90.50
27368;DHT22;14839;48.106;11.618;2023-04-03T09:31:51;6.10;89.00
27368;DHT22;14839;48.106;11.618;2023-04-03T09:34:26;5.90;90.10
27368;DHT22;14839;48.106;11.618;2023-04-03T09:36:55;5.90;90.80
27368;DHT22;14839;48.106;11.618;2023-04-03T09:39:28;5.70;87.80
27368;DHT22;14839;48.106;11.618;2023-04-03T09:42:18;5.40;88.10
27368;DHT22;14839;48.106;11.618;2023-04-03T09:44:54;5.40;89.90
27368;DHT22;14839;48.106;11.618;2023-04-03T09:47:32;5.20;89.90
27368;DHT22;14839;48.106;11.618;2023-04-03T09:52:40;5.00;90.20
27368;DHT22;14839;48.106;11.618;2023-04-03T09:57:43;5.00;90.70
27368;DHT22;14839;48.106;11.618;2023-04-03T10:00:26;5.00;90.60
27368;DHT22;14839;48.106;11.618;2023-04-03T10:02:57;5.10;91.60
27368;DHT22;14839;48.106;11.618;2023-04-03T10:10:38;5.10;91.70
27368;DHT22;14839;48.106;11.618;2023-04-03T10:13:11;5.00;90.20
27368;DHT22;14839;48.106;11.618;2023-04-03T10:15:45;4.90;90.20
27368;DHT22;14839;48.106;11.618;2023-04-03T10:18:27;4.80;90.90
27368;DHT22;14839;48.106;11.618;2023-04-03T10:20:59;4.90;91.90
27368;DHT22;14839;48.106;11.618;2023-04-03T10:23:43;5.00;91.60
27368;DHT22;14839;48.106;11.618;2023-04-03T10:26:37;5.00;91.70
27368;DHT22;14839;48.106;11.618;2023-04-03T10:34:43;5.00;93.30
27368;DHT22;14839;48.106;11.618;2023-04-03T10:37:30;5.20;93.00
27368;DHT22;14839;48.106;11.618;2023-04-03T10:40:29;5.30;90.40
27368;DHT22;14839;48.106;11.618;2023-04-03T10:45:46;4.90;91.90
27368;DHT22;14839;48.106;11.618;2023-04-03T10:48:34;4.60;93.60
27368;DHT22;14839;48.106;11.618;2023-04-03T10:53:52;4.20;94.60
27368;DHT22;14839;48.106;11.618;2023-04-03T10:56:42;3.90;94.60
27368;DHT22;14839;48.106;11.618;2023-04-03T10:59:35;3.90;94.60
27368;DHT22;14839;48.106;11.618;2023-04-03T11:04:35;3.70;94.60
27368;DHT22;14839;48.106;11.618;2023-04-03T11:07:08;3.90;94.60
27368;DHT22;14839;48.106;11.618;2023-04-03T11:09:40;3.90;94.60
27368;DHT22;14839;48.106;11.618;2023-04-03T11:12:14;4.20;94.60
27368;DHT22;14839;48.106;11.618;2023-04-03T11:14:42;4.40;94.60
27368;DHT22;14839;48.106;11.618;2023-04-03T11:20:17;4.40;94.60
27368;DHT22;14839;48.106;11.618;2023-04-03T11:22:47;4.60;94.60
27368;DHT22;14839;48.106;11.618;2023-04-03T11:25:19;4.60;93.50
27368;DHT22;14839;48.106;11.618;2023-04-03T11:28:03;4.60;92.90
27368;DHT22;14839;48.106;11.618;2023-04-03T11:30:49;4.60;91.60
27368;DHT22;14839;48.106;11.618;2023-04-03T11:33:26;4.60;91.70
27368;DHT22;14839;48.106;11.618;2023-04-03T11:35:57;4.60;90.60
27368;DHT22;14839;48.106;11.618;2023-04-03T11:38:28;4.30;90.50
27368;DHT22;14839;48.106;11.618;2023-04-03T11:40:56;4.40;91.00
27368;DHT22;14839;48.106;11.618;2023-04-03T11:43:30;4.40;90.30
27368;DHT22;14839;48.106;11.618;2023-04-03T11:51:47;4.70;88.00
27368;DHT22;14839;48.106;11.618;2023-04-03T11:53:48;4.60;88.00
27368;DHT22;14839;48.106;11.618;2023-04-03T12:04:10;5.00;86.20
27368;DHT22;14839;48.106;11.618;2023-04-03T12:09:29;5.30;85.10
27368;DHT22;14839;48.106;11.618;2023-04-03T12:11:57;5.30;83.90
27368;DHT22;14839;48.106;11.618;2023-04-03T12:14:25;5.40;83.20
27368;DHT22;14839;48.106;11.618;2023-04-03T12:16:53;5.40;81.20
27368;DHT22;14839;48.106;11.618;2023-04-03T12:19:38;5.40;82.10
27368;DHT22;14839;48.106;11.618;2023-04-03T12:22:12;5.50;82.90
27368;DHT22;14839;48.106;11.618;2023-04-03T12:24:43;5.60;81.10
27368;DHT22;14839;48.106;11.618;2023-04-03T12:35:19;5.80;78.70
27368;DHT22;14839;48.106;11.618;2023-04-03T12:46:14;6.50;78.10
27368;DHT22;14839;48.106;11.618;2023-04-03T12:51:19;6.90;73.00
27368;DHT22;14839;48.106;11.618;2023-04-03T12:53:47;7.10;71.20
27368;DHT22;14839;48.106;11.618;2023-04-03T12:56:25;7.20;70.90
27368;DHT22;14839;48.106;11.618;2023-04-03T12:58:57;7.20;70.60
27368;DHT22;14839;48.106;11.618;2023-04-03T13:01:37;7.20;70.10
27368;DHT22;14839;48.106;11.618;2023-04-03T13:04:03;7.20;70.60
27368;DHT22;14839;48.106;11.618;2023-04-03T13:06:41;7.20;70.10
27368;DHT22;14839;48.106;11.618;2023-04-03T13:09:28;7.10;68.50
27368;DHT22;14839;48.106;11.618;2023-04-03T13:12:09;7.20;72.70
27368;DHT22;14839;48.106;11.618;2023-04-03T13:14:37;7.50;68.90
27368;DHT22;14839;48.106;11.618;2023-04-03T13:19:34;7.40;70.40
27368;DHT22;14839;48.106;11.618;2023-04-03T13:22:04;7.10;67.90
27368;DHT22;14839;48.106;11.618;2023-04-03T13:24:33;7.20;69.50
27368;DHT22;14839;48.106;11.618;2023-04-03T13:27:02;7.30;69.40
27368;DHT22;14839;48.106;11.618;2023-04-03T13:29:32;6.60;70.90
27368;DHT22;14839;48.106;11.618;2023-04-03T13:31:59;6.40;71.30
27368;DHT22;14839;48.106;11.618;2023-04-03T13:34:29;6.40;72.50
27368;DHT22;14839;48.106;11.618;2023-04-03T13:37:00;6.40;71.60
27368;DHT22;14839;48.106;11.618;2023-04-03T13:39:31;6.40;73.90
27368;DHT22;14839;48.106;11.618;2023-04-03T13:42:00;6.60;73.40
27368;DHT22;14839;48.106;11.618;2023-04-03T13:44:36;6.80;69.40
27368;DHT22;14839;48.106;11.618;2023-04-03T13:47:18;6.90;69.70
27368;DHT22;14839;48.106;11.618;2023-04-03T13:49:57;6.90;68.80
27368;DHT22;14839;48.106;11.618;2023-04-03T13:52:33;7.10;69.20
27368;DHT22;14839;48.106;11.618;2023-04-03T13:57:53;6.90;68.80
27368;DHT22;14839;48.106;11.618;2023-04-03T14:00:39;6.70;69.10
27368;DHT22;14839;48.106;11.618;2023-04-03T14:03:43;6.50;70.40
27368;DHT22;14839;48.106;11.618;2023-04-03T14:06:15;6.50;70.10
27368;DHT22;14839;48.106;11.618;2023-04-03T14:08:43;6.60;70.10
27368;DHT22;14839;48.106;11.618;2023-04-03T14:13:40;6.60;69.70
27368;DHT22;14839;48.106;11.618;2023-04-03T14:16:05;6.70;68.90
27368;DHT22;14839;48.106;11.618;2023-04-03T14:18:31;6.80;68.80
27368;DHT22;14839;48.106;11.618;2023-04-03T14:20:57;6.80;66.50
27368;DHT22;14839;48.106;11.618;2023-04-03T14:23:23;6.50;64.70
27368;DHT22;14839;48.106;11.618;2023-04-03T14:25:49;6.40;65.60
27368;DHT22;14839;48.106;11.618;2023-04-03T14:28:18;6.40;67.10
27368;DHT22;14839;48.106;11.618;2023-04-03T14:30:46;6.40;65.20
27368;DHT22;14839;48.106;11.618;2023-04-03T14:33:19;6.40;64.30
27368;DHT22;14839;48.106;11.618;2023-04-03T14:35:45;6.30;65.00
27368;DHT22;14839;48.106;11.618;2023-04-03T14:38:24;6.30;65.60
27368;DHT22;14839;48.106;11.618;2023-04-03T14:40:52;6.20;64.70
27368;DHT22;14839;48.106;11.618;2023-04-03T14:43:18;6.10;64.10
27368;DHT22;14839;48.106;11.618;2023-04-03T14:45:45;6.10;65.20
27368;DHT22;14839;48.106;11.618;2023-04-03T14:48:18;6.10;66.10
27368;DHT22;14839;48.106;11.618;2023-04-03T14:50:45;6.30;64.70
27368;DHT22;14839;48.106;11.618;2023-04-03T14:53:11;6.30;65.30
27368;DHT22;14839;48.106;11.618;2023-04-03T14:55:38;6.30;64.10
27368;DHT22;14839;48.106;11.618;2023-04-03T14:58:03;6.30;64.30
27368;DHT22;14839;48.106;11.618;2023-04-03T15:00:29;6.40;64.30
27368;DHT22;14839;48.106;11.618;2023-04-03T15:02:55;6.40;63.10
27368;DHT22;14839;48.106;11.618;2023-04-03T15:05:21;6.60;65.20
27368;DHT22;14839;48.106;11.618;2023-04-03T15:07:53;6.60;62.90
27368;DHT22;14839;48.106;11.618;2023-04-03T15:10:24;6.60;63.50
27368;DHT22;14839;48.106;11.618;2023-04-03T15:12:51;6.60;62.30
27368;DHT22;14839;48.106;11.618;2023-04-03T15:15:19;6.70;61.10
27368;DHT22;14839;48.106;11.618;2023-04-03T15:17:50;6.80;63.70
27368;DHT22;14839;48.106;11.618;2023-04-03T15:20:21;6.70;62.50
27368;DHT22;14839;48.106;11.618;2023-04-03T15:22:47;6.70;62.80
27368;DHT22;14839;48.106;11.618;2023-04-03T15:25:12;6.50;61.30
27368;DHT22;14839;48.106;11.618;2023-04-03T15:27:39;6.20;61.30
27368;DHT22;14839;48.106;11.618;2023-04-03T15:30:07;6.00;62.00
27368;DHT22;14839;48.106;11.618;2023-04-03T15:32:33;5.90;63.10
27368;DHT22;14839;48.106;11.618;2023-04-03T15:35:00;5.80;63.10
27368;DHT22;14839;48.106;11.618;2023-04-03T15:37:27;5.50;62.30
27368;DHT22;14839;48.106;11.618;2023-04-03T15:39:52;5.40;63.40
27368;DHT22;14839;48.106;11.618;2023-04-03T15:42:18;5.30;63.10
27368;DHT22;14839;48.106;11.618;2023-04-03T15:44:44;5.30;63.40
27368;DHT22;14839;48.106;11.618;2023-04-03T15:47:09;5.20;63.20
27368;DHT22;14839;48.106;11.618;2023-04-03T15:49:36;5.20;63.50
27368;DHT22;14839;48.106;11.618;2023-04-03T15:52:02;5.20;63.20
27368;DHT22;14839;48.106;11.618;2023-04-03T15:54:28;5.20;62.80
27368;DHT22;14839;48.106;11.618;2023-04-03T15:56:55;5.10;63.20
27368;DHT22;14839;48.106;11.618;2023-04-03T15:59:21;5.10;64.40
27368;DHT22;14839;48.106;11.618;2023-04-03T16:01:47;5.10;63.10
27368;DHT22;14839;48.106;11.618;2023-04-03T16:04:13;5.10;63.10
27368;DHT22;14839;48.106;11.618;2023-04-03T16:06:39;5.00;62.30
27368;DHT22;14839;48.106;11.618;2023-04-03T16:09:06;5.00;61.70
27368;DHT22;14839;48.106;11.618;2023-04-03T16:11:32;5.10;62.60
27368;DHT22;14839;48.106;11.618;2023-04-03T16:13:58;5.10;65.00
27368;DHT22;14839;48.106;11.618;2023-04-03T16:16:24;5.10;63.20
27368;DHT22;14839;48.106;11.618;2023-04-03T16:18:54;5.20;63.80
27368;DHT22;14839;48.106;11.618;2023-04-03T16:21:21;5.30;63.70
27368;DHT22;14839;48.106;11.618;2023-04-03T16:23:47;5.20;63.20
27368;DHT22;14839;48.106;11.618;2023-04-03T16:26:12;5.20;64.70
27368;DHT22;14839;48.106;11.618;2023-04-03T16:28:38;5.10;64.30
27368;DHT22;14839;48.106;11.618;2023-04-03T16:31:05;5.10;64.00
27368;DHT22;14839;48.106;11.618;2023-04-03T16:33:31;5.00;66.10
27368;DHT22;14839;48.106;11.618;2023-04-03T16:35:57;5.00;64.40
27368;DHT22;14839;48.106;11.618;2023-04-03T16:38:23;4.90;64.60
27368;DHT22;14839;48.106;11.618;2023-04-03T16:40:49;4.90;63.80
27368;DHT22;14839;48.106;11.618;2023-04-03T16:43:15;4.80;62.60
27368;DHT22;14839;48.106;11.618;2023-04-03T16:45:41;4.80;63.10
27368;DHT22;14839;48.106;11.618;2023-04-03T16:48:07;4.80;62.90
27368;DHT22;14839;48.106;11.618;2023-04-03T16:50:33;4.80;63.70
27368;DHT22;14839;48.106;11.618;2023-04-03T16:52:59;4.80;65.00
27368;DHT22;14839;48.106;11.618;2023-04-03T16:55:24;4.80;64.40
27368;DHT22;14839;48.106;11.618;2023-04-03T16:57:50;4.70;63.70
27368;DHT22;14839;48.106;11.618;2023-04-03T17:00:16;4.70;65.20
27368;DHT22;14839;48.106;11.618;2023-04-03T17:02:42;4.60;65.30
27368;DHT22;14839;48.106;11.618;2023-04-03T17:05:08;4.60;65.50
27368;DHT22;14839;48.106;11.618;2023-04-03T17:07:33;4.60;67.00
27368;DHT22;14839;48.106;11.618;2023-04-03T17:09:59;4.60;67.60
27368;DHT22;14839;48.106;11.618;2023-04-03T17:12:25;4.60;68.90
27368;DHT22;14839;48.106;11.618;2023-04-03T17:14:51;4.60;68.80
27368;DHT22;14839;48.106;11.618;2023-04-03T17:17:21;4.50;68.00
27368;DHT22;14839;48.106;11.618;2023-04-03T17:19:47;4.40;68.80
27368;DHT22;14839;48.106;11.618;2023-04-03T17:22:13;4.40;69.40
27368;DHT22;14839;48.106;11.618;2023-04-03T17:24:40;4.30;69.50
27368;DHT22;14839;48.106;11.618;2023-04-03T17:27:06;4.30;69.80
27368;DHT22;14839;48.106;11.618;2023-04-03T17:29:31;4.20;70.10
27368;DHT22;14839;48.106;11.618;2023-04-03T17:31:57;4.20;70.40
27368;DHT22;14839;48.106;11.618;2023-04-03T17:34:23;4.20;71.00
27368;DHT22;14839;48.106;11.618;2023-04-03T17:36:48;4.10;71.30
27368;DHT22;14839;48.106;11.618;2023-04-03T17:39:14;4.00;72.10
27368;DHT22;14839;48.106;11.618;2023-04-03T17:41:39;4.00;72.80
27368;DHT22;14839;48.106;11.618;2023-04-03T17:44:05;4.00;72.40
27368;DHT22;14839;48.106;11.618;2023-04-03T17:46:31;3.90;72.20
27368;DHT22;14839;48.106;11.618;2023-04-03T17:48:57;3.90;71.90
27368;DHT22;14839;48.106;11.618;2023-04-03T17:51:25;3.80;71.60
27368;DHT22;14839;48.106;11.618;2023-04-03T17:53:51;3.80;72.40
27368;DHT22;14839;48.106;11.618;2023-04-03T17:56:22;3.80;72.40
27368;DHT22;14839;48.106;11.618;2023-04-03T17:58:49;3.70;73.40
27368;DHT22;14839;48.106;11.618;2023-04-03T18:01:17;3.70;73.00
27368;DHT22;14839;48.106;11.618;2023-04-03T18:03:44;3.70;71.90
27368;DHT22;14839;48.106;11.618;2023-04-03T18:06:15;3.70;69.80
27368;DHT22;14839;48.106;11.618;2023-04-03T18:08:50;3.60;70.00
27368;DHT22;14839;48.106;11.618;2023-04-03T18:11:17;3.60;71.60
27368;DHT22;14839;48.106;11.618;2023-04-03T18:13:44;3.60;71.50
27368;DHT22;14839;48.106;11.618;2023-04-03T18:16:11;3.50;71.30
27368;DHT22;14839;48.106;11.618;2023-04-03T18:18:38;3.50;72.20
27368;DHT22;14839;48.106;11.618;2023-04-03T18:21:04;3.50;72.70
27368;DHT22;14839;48.106;11.618;2023-04-03T18:23:31;3.50;73.30
27368;DHT22;14839;48.106;11.618;2023-04-03T18:26:00;3.40;73.70
27368;DHT22;14839;48.106;11.618;2023-04-03T18:28:26;3.40;74.60
27368;DHT22;14839;48.106;11.618;2023-04-03T18:30:52;3.40;73.10
27368;DHT22;14839;48.106;11.618;2023-04-03T18:33:18;3.40;73.60
27368;DHT22;14839;48.106;11.618;2023-04-03T18:35:44;3.40;73.00
27368;DHT22;14839;48.106;11.618;2023-04-03T18:38:09;3.40;73.10
27368;DHT22;14839;48.106;11.618;2023-04-03T18:40:35;3.30;73.00
27368;DHT22;14839;48.106;11.618;2023-04-03T18:43:01;3.30;74.00
27368;DHT22;14839;48.106;11.618;2023-04-03T18:45:27;3.20;73.40
27368;DHT22;14839;48.106;11.618;2023-04-03T18:47:53;3.20;73.90
27368;DHT22;14839;48.106;11.618;2023-04-03T18:50:19;3.20;73.60
27368;DHT22;14839;48.106;11.618;2023-04-03T18:52:45;3.20;74.00
27368;DHT22;14839;48.106;11.618;2023-04-03T18:55:16;3.10;74.30
27368;DHT22;14839;48.106;11.618;2023-04-03T18:57:44;3.10;74.60
27368;DHT22;14839;48.106;11.618;2023-04-03T19:00:10;3.10;74.80
27368;DHT22;14839;48.106;11.618;2023-04-03T19:02:36;3.00;75.40
27368;DHT22;14839;48.106;11.618;2023-04-03T19:05:02;3.00;74.60
27368;DHT22;14839;48.106;11.618;2023-04-03T19:07:28;2.90;75.10
27368;DHT22;14839;48.106;11.618;2023-04-03T19:09:54;2.90;75.70
27368;DHT22;14839;48.106;11.618;2023-04-03T19:12:20;3.00;76.10
27368;DHT22;14839;48.106;11.618;2023-04-03T19:14:46;2.80;75.50
27368;DHT22;14839;48.106;11.618;2023-04-03T19:17:12;2.80;75.80
27368;DHT22;14839;48.106;11.618;2023-04-03T19:19:38;2.80;76.10
27368;DHT22;14839;48.106;11.618;2023-04-03T19:22:03;2.70;76.60
27368;DHT22;14839;48.106;11.618;2023-04-03T19:24:29;2.60;76.60
27368;DHT22;14839;48.106;11.618;2023-04-03T19:26:54;2.60;76.90
27368;DHT22;14839;48.106;11.618;2023-04-03T19:29:20;2.60;77.30
27368;DHT22;14839;48.106;11.618;2023-04-03T19:31:46;2.60;77.90
27368;DHT22;14839;48.106;11.618;2023-04-03T19:34:11;2.50;77.90
27368;DHT22;14839;48.106;11.618;2023-04-03T19:36:37;2.50;77.80
27368;DHT22;14839;48.106;11.618;2023-04-03T19:39:04;2.50;78.70
27368;DHT22;14839;48.106;11.618;2023-04-03T19:41:32;2.40;79.10
27368;DHT22;14839;48.106;11.618;2023-04-03T19:43:59;2.40;79.60
27368;DHT22;14839;48.106;11.618;2023-04-03T19:46:27;2.30;80.20
27368;DHT22;14839;48.106;11.618;2023-04-03T19:48:53;2.30;79.70
27368;DHT22;14839;48.106;11.618;2023-04-03T19:51:18;2.30;79.60
27368;DHT22;14839;48.106;11.618;2023-04-03T19:53:44;2.30;79.90
27368;DHT22;14839;48.106;11.618;2023-04-03T19:56:11;2.30;80.30
27368;DHT22;14839;48.106;11.618;2023-04-03T19:58:37;2.30;79.70
27368;DHT22;14839;48.106;11.618;2023-04-03T20:01:04;2.30;79.30
27368;DHT22;14839;48.106;11.618;2023-04-03T20:03:30;2.30;79.00
27368;DHT22;14839;48.106;11.618;2023-04-03T20:05:55;2.20;78.80
27368;DHT22;14839;48.106;11.618;2023-04-03T20:08:22;2.20;78.80
27368;DHT22;14839;48.106;11.618;2023-04-03T20:10:50;2.10;78.20
27368;DHT22;14839;48.106;11.618;2023-04-03T20:13:16;2.00;78.40
27368;DHT22;14839;48.106;11.618;2023-04-03T20:15:42;1.90;78.50
27368;DHT22;14839;48.106;11.618;2023-04-03T20:18:14;1.80;79.00
27368;DHT22;14839;48.106;11.618;2023-04-03T20:20:43;1.70;78.50
27368;DHT22;14839;48.106;11.618;2023-04-03T20:23:11;1.60;78.40
27368;DHT22;14839;48.106;11.618;2023-04-03T20:25:45;1.60;78.70
27368;DHT22;14839;48.106;11.618;2023-04-03T20:28:12;1.60;79.00
27368;DHT22;14839;48.106;11.618;2023-04-03T20:30:38;1.50;79.90
27368;DHT22;14839;48.106;11.618;2023-04-03T20:33:05;1.50;79.70
27368;DHT22;14839;48.106;11.618;2023-04-03T20:35:31;1.40;80.50
27368;DHT22;14839;48.106;11.618;2023-04-03T20:37:57;1.30;80.20
27368;DHT22;14839;48.106;11.618;2023-04-03T20:40:23;1.30;79.70
27368;DHT22;14839;48.106;11.618;2023-04-03T20:42:49;1.30;80.50
27368;DHT22;14839;48.106;11.618;2023-04-03T20:45:17;1.20;80.50
27368;DHT22;14839;48.106;11.618;2023-04-03T20:47:43;1.20;80.90
27368;DHT22;14839;48.106;11.618;2023-04-03T20:50:09;1.20;80.90
27368;DHT22;14839;48.106;11.618;2023-04-03T20:52:35;1.10;81.80
27368;DHT22;14839;48.106;11.618;2023-04-03T20:55:02;1.00;82.30
27368;DHT22;14839;48.106;11.618;2023-04-03T20:57:27;0.90;83.00
27368;DHT22;14839;48.106;11.618;2023-04-03T20:59:53;0.90;83.20